Weather at Cherry Ridge Airport

Public forecast

Using degrees Fahrenheit for public forecast. Weather courtesy of forecast.io.

Closest aviation weather report (METAR) to Cherry Ridge Airport

Closest report is Sullivan County International Airport, 23.3 nm (43.2 km) ENE. Retrieved 2020/12/04 03:56 UTC (55 minutes ago):

KMSV 040356Z AUTO 00000KT 10SM OVC090 04/M10 A3007 RMK AO2 SLP193 T00441100

Closest aviation forecast (TAF) to Cherry Ridge Airport

Closest forecast is Wilkes Barre Scranton International Airport, 23.7 nm (44.0 km) WSW. Retrieved 2020-12-04 00:33 UTC (4 hours ago):

TAF KAVP 032330Z 0400/0424 22006KT P6SM BKN150 FM041600 23007KT P6SM BKN050 FM042100 21008KT P6SM BKN028